Relevés horaires St-Hubert (Belgique)


Relevés horaires à St-Hubert - Mercredi 25 Mai 2022
Heure UTC1 Température [°C] Vent [km/h] Hum. [%] Pres.4 [hPa] Visi. [Km] Nébu. [octa] Préc.5 [mm] Cond.
2m. Res. Ros. Dir.2 Vit. Moy. Raf.3
23:00 10.9 10.2 6.7 OSO 7.4 9.3 16.7 75 1020.9(1.0/3h) 50 8/8 -- --
22:00 11.3 10.7 6.1 OSO 7.4 9.3 14.8 70 1020.5(1.1/3h) 40 8/8 -- --
21:00 11.6 11 5.8 OSO 7.4 7.4 13.0 68 1020.2(1.2/3h) 45 8/8 -- --
20:00 11.8 11.6 5.9 SO 5.6 5.6 11.1 67 1019.6(1.0/3h) 45 8/8 -- --
19:00 12.3 12.2 5.2 OSO 5.6 7.4 13.0 62 1019.1(0.9/3h) 45 8/8 -- --
18:00 12.8 12.4 4.9 OSO 7.4 11.1 20.4 59 1018.7(1.0/3h) 45 8/8 0/12h
--
17:00 13.5 12.9 4.6 OSO 9.3 11.1 16.7 55 1018.2(0.7/3h) 45 8/8 -- --
16:00 14.3 13.9 4.6 OSO 9.3 11.1 18.5 52 1017.7(0.5/3h) 40 8/8 -- --
15:00 14.6 14.2 4.7 OSO 9.3 11.1 20.4 51 1017.3(0.2/3h) 40 6/8 -- --
14:00 14.9 14.4 4.4 OSO 11.1 11.1 20.4 49 1017.1(0.0/3h) 35 0/8 -- --
13:00 14.4 14 5.2 SO 9.3 9.3 18.5 54 1017.2(0.1/3h) 30 6/8 -- --
12:00 13.9 13.4 5.1 SO 9.3 11.1 20.4 55 1017.3(0.3/3h) 40 4/8 0/6h
--
11:00 13.3 12.4 6.3 OSO 11.1 9.3 20.4 63 1017.5(0.7/3h) 35 8/8 -- --
10:00 12.0 11.5 5.4 OSO 7.4 11.1 16.7 64 1017.7(0.8/3h) 45 1/8 -- --
09:00 10.8 9.7 4.8 OSO 9.3 9.3 18.5 66 1017.7(1.1/3h) 35 6/8 -- --
08:00 10.8 10.1 5.5 OSO 7.4 7.4 13.0 70 1017.3(1.3/3h) 30 4/8 -- --
07:00 9.4 8.9 4.7 OSO 5.6 5.6 7.4 72 1017.4(1.5/3h) 40 0/8 -- --
06:00 7.3 7.3 4.8 SO 3.7 3.7 5.6 84 1017.3(1.4/3h) 40 0/8 0/12h
--
05:00 5.6 5.6 4.3 OSO 1.9 1.9 3.7 91 1017.2(1.1/3h) 45 0/8 -- --
04:00 4.7 4.7 3.4 OSO 1.9 1.9 3.7 91 1017(0.9/3h) 27 0/8 -- --
03:00 4.7 4.7 3.6 OSO 1.9 3.7 3.7 93 1016.5(0.8/3h) -- 2/8 -- --
02:00 4.7 4.7 3.6 OSO 1.9 1.9 3.7 93 1016.3(0.9/3h) 13 0/8 -- --
01:00 5.6 5.6 4.2 SO 1.9 3.7 3.7 91 1015.8(1.3/3h) 45 0/8 -- --
00:00 5.5 5.5 4.1 OSO 1.9 9.3 16.7 91 1015.4(1.1/3h) 50 0/8 0/6h
7.2/24h
--

1 Coordinated Universal Time. Actuellement il est 06:00 locale et 05:00 UTC.

2 Le vent souffle depuis la direction indiquée vers la direction oposée.

3 Les rafales max. sont disponible 40 min après l'heure du relevé.

4 Pour les stations d'altitude (plus de 600m) le géopotentiel du niveau le plus proche de la pression obligatoire est indiqué.

5 Les stations disposant d'un diffuseur peuvent indiquer "trace". Cela signifie que des précipitations ont touchés le sol mais que la quantité est inférieure à 0.1 mm.

Récapitulatif de la journée
Température [°C] Vent [km/h] Ensoleillement4 [h] Precipitations totale5 [mm] Pression [Hpa]
Min1 Max.2 Moy.3 Max. Min Max.
3.8 15.5 7.7 20.4 0 h 0 min 0 1015.4 1020.9

1 Température minimale relevée entre 18:00 UTC la veille et 18:00 UTC le jour donné.

2 Température maximale relevée entre 06:00 UTC le jour donné et 06:00 UTC le lendemain.

3 Vent moyen de la journée basé sur les relevés horaires.

4 Ensoleillement en heures relevé entre 06:00 UTC la veille et 06:00 UTC le jour donné.

5 Précipitations totales tombées entre 06:00 UTC la jour donné et 06:00 UTC le lendemain.

Graphiques horaires